Historique des mesures à Cassis (13260), France
Quotidien Résumé Juin 3, 2017 Unités:  US    Métrique   Métrique/US
« Précédent (Jour)
Suivant (Jour) »
Quotidien Hebdomadaire Mensuel Annuel Période au choix
  Maximum: Minimum: Moyenne:
Température: 32 °F 65.3 °F 72 °F
Point de rosée: 32 °F 59.4 °F 62.4 °F
Humidité: Humidity % 60 % 69 %
Vitesse du vent: WindSpeedKMH mph 0.0 mph 2.2 mph
Rafales: WindSpeedGustKMH mph - -
Vent:- - South
Pression: 0 in 29.9 in -
Précipitations: 0 in    
Historical Graphs
 
 
Mesures pour : Juin 3, 2017
Heure Temperature Point de rosée Pression Vent Vitesse du vent Rafales Humidité Pluie (par heure) Conditions
32 °F 32 °F 0 in Calm     Humidity % 0 in SoftwareType W/m2
00:10 68.2 °F 60.3 °F 29.9 in Calm     76 % 0 in open2300-1.11 W/m2
01:10 67.6 °F 60.3 °F 29.9 in Calm     77 % 0 in open2300-1.11 W/m2
02:10 66.9 °F 60.3 °F 29.9 in NNE 2.6 mph 2.6 mph 79 % 0 in open2300-1.11 W/m2
03:10 66.4 °F 60.1 °F 29.9 in Calm     80 % 0 in open2300-1.11 W/m2
04:10 65.8 °F 59.9 °F 29.9 in Calm     81 % 0 in open2300-1.11 W/m2
05:10 65.8 °F 59.9 °F 29.9 in Calm   2.1 mph 81 % 0 in open2300-1.11 W/m2
06:10 65.3 °F 59.4 °F 29.9 in Calm   1.8 mph 81 % 0 in open2300-1.11 W/m2
07:10 65.8 °F 59.5 °F 29.9 in NNW 5.0 mph 5.0 mph 80 % 0 in open2300-1.11 W/m2
08:10 70.7 °F 63.1 °F 29.9 in Calm     77 % 0 in open2300-1.11 W/m2
09:11 71.4 °F 63 °F 29.9 in SE 1.1 mph 3.2 mph 75 % 0 in open2300-1.11 W/m2
10:10 75.4 °F 66.6 °F 29.9 in SE 4.3 mph 7.9 mph 74 % 0 in open2300-1.11 W/m2
11:10 80.8 °F 66.9 °F 29.9 in South 4.0 mph 4.0 mph 63 % 0 in open2300-1.11 W/m2
12:10 82.6 °F 67.6 °F 29.9 in South 5.5 mph 5.8 mph 61 % 0 in open2300-1.11 W/m2
13:11 82 °F 66.7 °F 29.9 in SW 4.7 mph 6.1 mph 60 % 0 in open2300-1.11 W/m2
14:10 80.8 °F 66.9 °F 29.9 in SE 6.4 mph 6.4 mph 63 % 0 in open2300-1.11 W/m2
15:10 82.2 °F 67.8 °F 29.9 in Calm   5.8 mph 62 % 0 in open2300-1.11 W/m2
16:10 81.5 °F 66.7 °F 29.9 in SSE 1.4 mph 6.8 mph 61 % 0 in open2300-1.11 W/m2
17:10 79.7 °F 66.4 °F 29.9 in South 3.2 mph 8.2 mph 64 % 0 in open2300-1.11 W/m2
18:10 78.1 °F 65.8 °F 29.9 in South 4.3 mph 4.3 mph 66 % 0 in open2300-1.11 W/m2
19:10 76.8 °F 65.8 °F 29.9 in SW 5.0 mph 5.8 mph 69 % 0 in open2300-1.11 W/m2
20:10 75.6 °F 65.5 °F 29.9 in West 2.9 mph 4.7 mph 71 % 0 in open2300-1.11 W/m2
21:10 74.5 °F 64.9 °F 29.9 in SSE 2.9 mph 3.2 mph 72 % 0 in open2300-1.11 W/m2
22:10 72.7 °F 62.1 °F 29.9 in Calm   1.4 mph 69 % 0 in open2300-1.11 W/m2
23:11 71.1 °F 60.8 °F 29.9 in NNE 1.4 mph 1.4 mph 70 % 0 in open2300-1.11 W/m2
Observations météo à CASSIS
WU-History script by Weather Underground - 1 mb